sensor_id;sensor_type;location;lat;lon;timestamp;pressure;altitude;pressure_sealevel;temperature;humidity
61568;BME280;47462;59.172;17.196;2022-08-11T00:00:19;101795.50;;;17.51;72.71
61568;BME280;47462;59.172;17.196;2022-08-11T00:02:46;101798.94;;;17.53;72.58
61568;BME280;47462;59.172;17.196;2022-08-11T00:05:14;101781.06;;;17.38;72.84
61568;BME280;47462;59.172;17.196;2022-08-11T00:07:53;101784.78;;;17.34;73.08
61568;BME280;47462;59.172;17.196;2022-08-11T00:10:26;101788.16;;;17.37;73.31
61568;BME280;47462;59.172;17.196;2022-08-11T00:12:58;101793.19;;;17.43;73.15
61568;BME280;47462;59.172;17.196;2022-08-11T00:15:26;101783.59;;;17.41;73.09
61568;BME280;47462;59.172;17.196;2022-08-11T00:17:58;101778.25;;;17.42;73.10
61568;BME280;47462;59.172;17.196;2022-08-11T00:20:29;101775.56;;;17.44;73.04
61568;BME280;47462;59.172;17.196;2022-08-11T00:23:00;101773.09;;;17.39;73.02
61568;BME280;47462;59.172;17.196;2022-08-11T00:25:27;101775.00;;;17.36;73.30
61568;BME280;47462;59.172;17.196;2022-08-11T00:27:52;101773.41;;;17.32;73.40
61568;BME280;47462;59.172;17.196;2022-08-11T00:30:18;101781.31;;;17.32;73.40
61568;BME280;47462;59.172;17.196;2022-08-11T00:32:51;101780.72;;;17.25;73.57
61568;BME280;47462;59.172;17.196;2022-08-11T00:35:23;101779.22;;;17.18;74.02
61568;BME280;47462;59.172;17.196;2022-08-11T00:37:51;101772.59;;;17.07;74.01
61568;BME280;47462;59.172;17.196;2022-08-11T00:40:32;101765.63;;;17.06;74.30
61568;BME280;47462;59.172;17.196;2022-08-11T00:48:28;101763.53;;;16.92;74.79
61568;BME280;47462;59.172;17.196;2022-08-11T01:05:55;101764.94;;;16.77;75.85
61568;BME280;47462;59.172;17.196;2022-08-11T01:08:34;101755.47;;;16.72;75.98
61568;BME280;47462;59.172;17.196;2022-08-11T01:19:49;101750.31;;;16.69;76.53
61568;BME280;47462;59.172;17.196;2022-08-11T01:45:07;101747.09;;;16.61;77.64
61568;BME280;47462;59.172;17.196;2022-08-11T01:48:02;101743.69;;;16.58;77.92
61568;BME280;47462;59.172;17.196;2022-08-11T01:53:25;101739.38;;;16.56;78.13
61568;BME280;47462;59.172;17.196;2022-08-11T01:56:09;101738.59;;;16.54;78.05
61568;BME280;47462;59.172;17.196;2022-08-11T02:06:45;101723.97;;;16.45;78.55
61568;BME280;47462;59.172;17.196;2022-08-11T02:12:35;101716.69;;;16.28;78.96
61568;BME280;47462;59.172;17.196;2022-08-11T02:20:50;101754.97;;;16.37;79.36
61568;BME280;47462;59.172;17.196;2022-08-11T02:24:10;101757.72;;;16.34;79.38
61568;BME280;47462;59.172;17.196;2022-08-11T02:27:17;101756.19;;;16.28;79.57
61568;BME280;47462;59.172;17.196;2022-08-11T02:30:09;101759.72;;;16.27;79.68
61568;BME280;47462;59.172;17.196;2022-08-11T02:35:28;101766.84;;;16.25;79.44
61568;BME280;47462;59.172;17.196;2022-08-11T02:38:24;101740.94;;;16.13;79.40
61568;BME280;47462;59.172;17.196;2022-08-11T02:41:14;101740.22;;;16.08;79.50
61568;BME280;47462;59.172;17.196;2022-08-11T02:46:27;101755.00;;;16.12;79.61
61568;BME280;47462;59.172;17.196;2022-08-11T02:57:42;101734.38;;;15.99;79.92
61568;BME280;47462;59.172;17.196;2022-08-11T03:00:14;101744.84;;;16.01;80.39
61568;BME280;47462;59.172;17.196;2022-08-11T03:03:02;101744.84;;;16.01;80.48
61568;BME280;47462;59.172;17.196;2022-08-11T03:06:08;101757.13;;;16.02;80.52
61568;BME280;47462;59.172;17.196;2022-08-11T03:08:53;101753.78;;;15.97;80.82
61568;BME280;47462;59.172;17.196;2022-08-11T03:11:56;101751.13;;;15.97;80.91
61568;BME280;47462;59.172;17.196;2022-08-11T03:15:18;101746.91;;;15.93;81.00
61568;BME280;47462;59.172;17.196;2022-08-11T03:18:37;101745.28;;;15.89;81.30
61568;BME280;47462;59.172;17.196;2022-08-11T03:21:19;101739.22;;;15.86;81.13
61568;BME280;47462;59.172;17.196;2022-08-11T03:24:02;101739.44;;;15.80;81.36
61568;BME280;47462;59.172;17.196;2022-08-11T03:26:46;101721.38;;;15.68;81.50
61568;BME280;47462;59.172;17.196;2022-08-11T03:29:34;101752.53;;;15.82;81.41
61568;BME280;47462;59.172;17.196;2022-08-11T03:32:08;101739.53;;;15.76;81.80
61568;BME280;47462;59.172;17.196;2022-08-11T03:34:41;101743.88;;;15.78;81.88
61568;BME280;47462;59.172;17.196;2022-08-11T03:43:46;101731.53;;;15.80;81.93
61568;BME280;47462;59.172;17.196;2022-08-11T03:46:55;101726.28;;;15.80;81.94
61568;BME280;47462;59.172;17.196;2022-08-11T04:01:02;101727.06;;;15.82;81.73
61568;BME280;47462;59.172;17.196;2022-08-11T04:06:58;101720.25;;;15.75;81.85
61568;BME280;47462;59.172;17.196;2022-08-11T04:35:31;101728.88;;;16.78;79.57
61568;BME280;47462;59.172;17.196;2022-08-11T04:48:43;101717.06;;;17.12;78.15
61568;BME280;47462;59.172;17.196;2022-08-11T04:52:01;101721.16;;;17.19;77.78
61568;BME280;47462;59.172;17.196;2022-08-11T04:58:20;101714.47;;;17.33;77.19
61568;BME280;47462;59.172;17.196;2022-08-11T05:04:12;101722.25;;;17.56;76.52
61568;BME280;47462;59.172;17.196;2022-08-11T05:13:04;101724.53;;;17.86;75.37
61568;BME280;47462;59.172;17.196;2022-08-11T05:16:03;101711.34;;;17.86;75.02
61568;BME280;47462;59.172;17.196;2022-08-11T05:18:54;101706.47;;;17.97;74.05
61568;BME280;47462;59.172;17.196;2022-08-11T05:21:39;101719.13;;;18.10;74.03
61568;BME280;47462;59.172;17.196;2022-08-11T05:24:30;101716.28;;;18.14;73.28
61568;BME280;47462;59.172;17.196;2022-08-11T05:27:22;101703.88;;;18.16;
61568;BME280;47462;59.172;17.196;2022-08-11T05:30:14;101713.84;;;18.30;72.93
61568;BME280;47462;59.172;17.196;2022-08-11T05:33:11;101722.34;;;18.37;72.59
61568;BME280;47462;59.172;17.196;2022-08-11T05:36:09;101704.13;;;18.31;72.60
61568;BME280;47462;59.172;17.196;2022-08-11T05:38:37;101711.00;;;18.54;72.04
61568;BME280;47462;59.172;17.196;2022-08-11T05:41:24;101722.66;;;18.69;71.38
61568;BME280;47462;59.172;17.196;2022-08-11T05:44:17;101718.94;;;18.73;71.05
61568;BME280;47462;59.172;17.196;2022-08-11T05:47:02;101722.00;;;18.83;71.11
61568;BME280;47462;59.172;17.196;2022-08-11T05:49:49;101707.84;;;18.84;70.67
61568;BME280;47462;59.172;17.196;2022-08-11T05:52:35;101720.22;;;19.02;70.59
61568;BME280;47462;59.172;17.196;2022-08-11T05:55:24;101709.06;;;18.96;70.30
61568;BME280;47462;59.172;17.196;2022-08-11T05:58:08;101707.09;;;19.18;70.07
61568;BME280;47462;59.172;17.196;2022-08-11T06:00:44;101707.84;;;19.22;69.54
61568;BME280;47462;59.172;17.196;2022-08-11T06:03:19;101704.81;;;19.30;69.17
61568;BME280;47462;59.172;17.196;2022-08-11T06:05:49;101688.84;;;19.31;69.33
61568;BME280;47462;59.172;17.196;2022-08-11T06:08:18;101713.13;;;19.39;68.72
61568;BME280;47462;59.172;17.196;2022-08-11T06:10:59;101710.31;;;19.42;68.56
61568;BME280;47462;59.172;17.196;2022-08-11T06:13:25;101712.97;;;19.60;68.24
61568;BME280;47462;59.172;17.196;2022-08-11T06:15:58;101716.78;;;19.72;67.90
61568;BME280;47462;59.172;17.196;2022-08-11T06:18:25;101674.91;;;19.63;67.54
61568;BME280;47462;59.172;17.196;2022-08-11T06:20:54;101708.34;;;19.83;67.24
61568;BME280;47462;59.172;17.196;2022-08-11T06:23:23;101690.88;;;19.96;66.94
61568;BME280;47462;59.172;17.196;2022-08-11T06:25:54;101697.50;;;20.21;66.32
61568;BME280;47462;59.172;17.196;2022-08-11T06:28:31;101695.88;;;20.18;65.73
61568;BME280;47462;59.172;17.196;2022-08-11T06:30:58;101671.00;;;20.05;66.22
61568;BME280;47462;59.172;17.196;2022-08-11T06:33:37;101693.44;;;20.31;65.66
61568;BME280;47462;59.172;17.196;2022-08-11T06:36:37;101691.50;;;20.51;65.23
61568;BME280;47462;59.172;17.196;2022-08-11T06:41:45;101635.41;;;20.09;64.40
61568;BME280;47462;59.172;17.196;2022-08-11T06:46:49;101699.97;;;20.57;64.21
61568;BME280;47462;59.172;17.196;2022-08-11T06:49:33;101660.97;;;20.43;63.79
61568;BME280;47462;59.172;17.196;2022-08-11T06:52:19;101669.38;;;20.67;63.93
61568;BME280;47462;59.172;17.196;2022-08-11T06:55:00;101680.38;;;21.08;63.26
61568;BME280;47462;59.172;17.196;2022-08-11T06:57:38;101632.97;;;21.01;62.28
61568;BME280;47462;59.172;17.196;2022-08-11T07:00:25;101677.38;;;21.44;61.77
61568;BME280;47462;59.172;17.196;2022-08-11T07:03:06;101676.50;;;21.60;61.73
61568;BME280;47462;59.172;17.196;2022-08-11T07:05:50;101675.66;;;21.73;61.07
61568;BME280;47462;59.172;17.196;2022-08-11T07:15:08;101613.69;;;21.59;59.60
61568;BME280;47462;59.172;17.196;2022-08-11T07:17:55;101667.25;;;22.10;59.21
61568;BME280;47462;59.172;17.196;2022-08-11T07:20:44;101641.97;;;22.17;58.81
61568;BME280;47462;59.172;17.196;2022-08-11T07:23:31;101669.88;;;22.53;58.33
61568;BME280;47462;59.172;17.196;2022-08-11T07:26:25;101668.34;;;22.49;57.69
61568;BME280;47462;59.172;17.196;2022-08-11T07:29:13;101618.03;;;22.17;57.49
61568;BME280;47462;59.172;17.196;2022-08-11T07:31:49;101650.72;;;22.48;56.92
61568;BME280;47462;59.172;17.196;2022-08-11T07:34:22;101679.59;;;22.82;56.69
61568;BME280;47462;59.172;17.196;2022-08-11T07:37:00;101669.84;;;22.95;56.06
61568;BME280;47462;59.172;17.196;2022-08-11T07:39:32;101667.81;;;23.13;55.58
61568;BME280;47462;59.172;17.196;2022-08-11T07:41:59;101672.00;;;23.30;54.77
61568;BME280;47462;59.172;17.196;2022-08-11T07:44:29;101661.03;;;23.22;55.40
61568;BME280;47462;59.172;17.196;2022-08-11T07:46:56;101683.13;;;23.49;54.95
61568;BME280;47462;59.172;17.196;2022-08-11T07:49:44;101675.34;;;23.59;54.24
61568;BME280;47462;59.172;17.196;2022-08-11T07:52:32;101684.75;;;23.65;53.88
61568;BME280;47462;59.172;17.196;2022-08-11T07:55:13;101663.72;;;23.35;53.32
61568;BME280;47462;59.172;17.196;2022-08-11T07:57:40;101681.22;;;23.51;54.00
61568;BME280;47462;59.172;17.196;2022-08-11T08:00:27;101693.75;;;23.90;53.51
61568;BME280;47462;59.172;17.196;2022-08-11T08:03:11;101688.50;;;23.75;52.34
61568;BME280;47462;59.172;17.196;2022-08-11T08:06:01;101697.38;;;24.01;52.81
61568;BME280;47462;59.172;17.196;2022-08-11T08:08:46;101672.56;;;24.38;51.88
61568;BME280;47462;59.172;17.196;2022-08-11T08:11:30;101673.38;;;24.64;50.63
61568;BME280;47462;59.172;17.196;2022-08-11T08:14:16;101681.22;;;24.79;50.13
61568;BME280;47462;59.172;17.196;2022-08-11T08:17:00;101579.41;;;24.11;50.11
61568;BME280;47462;59.172;17.196;2022-08-11T08:19:48;101701.94;;;24.99;48.96
61568;BME280;47462;59.172;17.196;2022-08-11T08:22:16;101654.16;;;24.59;47.79
61568;BME280;47462;59.172;17.196;2022-08-11T08:24:43;101687.97;;;24.71;47.72
61568;BME280;47462;59.172;17.196;2022-08-11T08:27:13;101667.06;;;24.65;48.54
61568;BME280;47462;59.172;17.196;2022-08-11T08:29:39;101703.38;;;24.92;47.62
61568;BME280;47462;59.172;17.196;2022-08-11T08:32:24;101684.81;;;25.15;46.98
61568;BME280;47462;59.172;17.196;2022-08-11T08:34:53;101677.41;;;25.18;46.88
61568;BME280;47462;59.172;17.196;2022-08-11T08:37:22;101687.34;;;25.40;46.36
61568;BME280;47462;59.172;17.196;2022-08-11T08:39:49;101696.34;;;25.39;45.79
61568;BME280;47462;59.172;17.196;2022-08-11T08:42:38;101703.00;;;25.45;45.81
61568;BME280;47462;59.172;17.196;2022-08-11T08:45:11;101683.75;;;25.64;46.38
61568;BME280;47462;59.172;17.196;2022-08-11T08:48:02;101699.31;;;25.70;45.15
61568;BME280;47462;59.172;17.196;2022-08-11T08:50:35;101684.66;;;25.40;46.02
61568;BME280;47462;59.172;17.196;2022-08-11T08:53:25;101681.72;;;25.79;45.81
61568;BME280;47462;59.172;17.196;2022-08-11T08:56:01;101668.72;;;25.74;44.08
61568;BME280;47462;59.172;17.196;2022-08-11T08:58:28;101690.78;;;25.65;44.88
61568;BME280;47462;59.172;17.196;2022-08-11T09:00:55;101648.84;;;25.54;44.17
61568;BME280;47462;59.172;17.196;2022-08-11T09:03:32;101651.16;;;25.48;44.01
61568;BME280;47462;59.172;17.196;2022-08-11T09:06:04;101702.88;;;25.82;44.35
61568;BME280;47462;59.172;17.196;2022-08-11T09:08:32;101682.56;;;25.91;42.94
61568;BME280;47462;59.172;17.196;2022-08-11T09:11:07;101671.06;;;26.02;43.05
61568;BME280;47462;59.172;17.196;2022-08-11T09:13:54;101658.69;;;26.01;42.45
61568;BME280;47462;59.172;17.196;2022-08-11T09:16:21;101678.84;;;26.27;41.36
61568;BME280;47462;59.172;17.196;2022-08-11T09:18:50;101672.38;;;26.19;40.74
61568;BME280;47462;59.172;17.196;2022-08-11T09:21:17;101677.00;;;26.39;40.20
61568;BME280;47462;59.172;17.196;2022-08-11T09:23:50;101663.84;;;26.59;40.40
61568;BME280;47462;59.172;17.196;2022-08-11T09:26:45;101675.16;;;27.06;40.49
61568;BME280;47462;59.172;17.196;2022-08-11T09:29:32;101669.56;;;26.98;38.91
61568;BME280;47462;59.172;17.196;2022-08-11T09:31:58;101669.69;;;26.96;38.68
61568;BME280;47462;59.172;17.196;2022-08-11T09:34:26;101666.63;;;26.68;38.83
61568;BME280;47462;59.172;17.196;2022-08-11T09:37:00;101663.28;;;26.87;40.09
61568;BME280;47462;59.172;17.196;2022-08-11T09:39:52;101661.97;;;27.14;38.90
61568;BME280;47462;59.172;17.196;2022-08-11T09:42:39;101673.34;;;27.28;39.03
61568;BME280;47462;59.172;17.196;2022-08-11T09:45:24;101653.34;;;27.11;38.46
61568;BME280;47462;59.172;17.196;2022-08-11T09:47:57;101694.19;;;27.24;39.28
61568;BME280;47462;59.172;17.196;2022-08-11T09:50:26;101696.72;;;27.04;38.69
61568;BME280;47462;59.172;17.196;2022-08-11T09:52:56;101659.94;;;26.74;38.53
61568;BME280;47462;59.172;17.196;2022-08-11T09:55:21;101673.19;;;26.76;39.40
61568;BME280;47462;59.172;17.196;2022-08-11T09:57:47;101679.69;;;26.94;39.66
61568;BME280;47462;59.172;17.196;2022-08-11T10:00:33;101674.28;;;27.38;39.56
61568;BME280;47462;59.172;17.196;2022-08-11T10:03:05;101677.25;;;27.87;39.20
61568;BME280;47462;59.172;17.196;2022-08-11T10:05:32;101661.53;;;28.03;38.15
61568;BME280;47462;59.172;17.196;2022-08-11T10:08:17;101679.88;;;27.77;37.62
61568;BME280;47462;59.172;17.196;2022-08-11T10:10:45;101673.69;;;27.55;38.54
61568;BME280;47462;59.172;17.196;2022-08-11T10:13:17;101668.13;;;27.47;38.24
61568;BME280;47462;59.172;17.196;2022-08-11T10:15:45;101674.94;;;27.72;38.02
61568;BME280;47462;59.172;17.196;2022-08-11T10:18:17;101666.03;;;27.72;37.32
61568;BME280;47462;59.172;17.196;2022-08-11T10:21:13;101663.50;;;27.49;37.01
61568;BME280;47462;59.172;17.196;2022-08-11T10:23:39;101675.91;;;27.71;37.82
61568;BME280;47462;59.172;17.196;2022-08-11T10:26:26;101676.47;;;27.96;37.44
61568;BME280;47462;59.172;17.196;2022-08-11T10:29:12;101657.22;;;28.12;37.56
61568;BME280;47462;59.172;17.196;2022-08-11T10:31:58;101672.56;;;28.10;37.62
61568;BME280;47462;59.172;17.196;2022-08-11T10:34:46;101664.47;;;28.31;38.37
61568;BME280;47462;59.172;17.196;2022-08-11T10:37:13;101672.09;;;28.36;36.77
61568;BME280;47462;59.172;17.196;2022-08-11T10:39:40;101668.66;;;28.24;37.47
61568;BME280;47462;59.172;17.196;2022-08-11T10:42:13;101662.94;;;28.48;36.75
61568;BME280;47462;59.172;17.196;2022-08-11T10:44:58;101658.34;;;28.70;37.18
61568;BME280;47462;59.172;17.196;2022-08-11T10:47:26;101668.53;;;29.15;36.02
61568;BME280;47462;59.172;17.196;2022-08-11T10:50:08;101681.28;;;29.42;34.82
61568;BME280;47462;59.172;17.196;2022-08-11T10:52:57;101670.25;;;28.96;34.14
61568;BME280;47462;59.172;17.196;2022-08-11T10:55:45;101673.09;;;29.24;34.00
61568;BME280;47462;59.172;17.196;2022-08-11T10:58:33;101655.81;;;28.88;33.31
61568;BME280;47462;59.172;17.196;2022-08-11T11:01:10;101666.84;;;29.14;33.83
61568;BME280;47462;59.172;17.196;2022-08-11T11:03:40;101664.56;;;29.39;33.61
61568;BME280;47462;59.172;17.196;2022-08-11T11:06:21;101652.06;;;29.57;32.97
61568;BME280;47462;59.172;17.196;2022-08-11T11:08:55;101632.53;;;29.65;32.32
61568;BME280;47462;59.172;17.196;2022-08-11T11:11:26;101647.34;;;29.31;32.33
61568;BME280;47462;59.172;17.196;2022-08-11T11:14:15;101647.16;;;29.43;32.81
61568;BME280;47462;59.172;17.196;2022-08-11T11:17:02;101652.94;;;29.48;32.48
61568;BME280;47462;59.172;17.196;2022-08-11T11:19:38;101620.75;;;29.28;32.08
61568;BME280;47462;59.172;17.196;2022-08-11T11:22:05;101647.50;;;29.87;32.07
61568;BME280;47462;59.172;17.196;2022-08-11T11:25:04;101645.84;;;29.66;32.13
61568;BME280;47462;59.172;17.196;2022-08-11T11:27:47;101648.44;;;29.39;32.04
61568;BME280;47462;59.172;17.196;2022-08-11T11:30:18;101642.88;;;29.60;32.35
61568;BME280;47462;59.172;17.196;2022-08-11T11:38:31;101649.00;;;29.52;30.58
61568;BME280;47462;59.172;17.196;2022-08-11T11:40:58;101653.38;;;29.53;29.06
61568;BME280;47462;59.172;17.196;2022-08-11T11:43:42;101623.25;;;29.40;30.27
61568;BME280;47462;59.172;17.196;2022-08-11T11:46:13;101637.19;;;29.82;30.55
61568;BME280;47462;59.172;17.196;2022-08-11T11:48:40;101629.81;;;29.75;29.21
61568;BME280;47462;59.172;17.196;2022-08-11T11:51:06;101649.78;;;29.82;28.90
61568;BME280;47462;59.172;17.196;2022-08-11T11:53:33;101642.56;;;29.73;29.42
61568;BME280;47462;59.172;17.196;2022-08-11T11:56:00;101650.06;;;29.69;29.03
61568;BME280;47462;59.172;17.196;2022-08-11T11:58:26;101592.16;;;29.17;29.37
61568;BME280;47462;59.172;17.196;2022-08-11T12:01:12;101644.72;;;29.59;30.19
61568;BME280;47462;59.172;17.196;2022-08-11T12:03:46;101617.63;;;29.33;30.16
61568;BME280;47462;59.172;17.196;2022-08-11T12:06:14;101621.66;;;29.57;30.71
61568;BME280;47462;59.172;17.196;2022-08-11T12:08:41;101605.56;;;29.47;30.82
61568;BME280;47462;59.172;17.196;2022-08-11T12:11:10;101627.63;;;29.50;30.89
61568;BME280;47462;59.172;17.196;2022-08-11T12:14:08;101623.38;;;29.95;31.58
61568;BME280;47462;59.172;17.196;2022-08-11T12:16:44;101629.16;;;30.28;31.64
61568;BME280;47462;59.172;17.196;2022-08-11T12:19:14;101610.34;;;30.18;31.26
61568;BME280;47462;59.172;17.196;2022-08-11T12:21:41;101622.63;;;30.31;30.42
61568;BME280;47462;59.172;17.196;2022-08-11T12:24:28;101619.81;;;30.22;30.70
61568;BME280;47462;59.172;17.196;2022-08-11T12:27:13;101603.53;;;29.96;30.00
61568;BME280;47462;59.172;17.196;2022-08-11T12:29:59;101622.00;;;29.81;29.81
61568;BME280;47462;59.172;17.196;2022-08-11T12:32:28;101607.31;;;29.76;28.92
61568;BME280;47462;59.172;17.196;2022-08-11T12:34:55;101581.47;;;29.55;28.76
61568;BME280;47462;59.172;17.196;2022-08-11T12:37:38;101624.56;;;29.73;28.80
61568;BME280;47462;59.172;17.196;2022-08-11T12:40:10;101631.25;;;30.06;29.59
61568;BME280;47462;59.172;17.196;2022-08-11T12:42:58;101627.34;;;30.47;29.60
61568;BME280;47462;59.172;17.196;2022-08-11T12:45:43;101627.53;;;30.99;29.65
61568;BME280;47462;59.172;17.196;2022-08-11T12:48:19;101627.81;;;30.96;28.98
61568;BME280;47462;59.172;17.196;2022-08-11T12:51:14;101613.13;;;30.72;28.65
61568;BME280;47462;59.172;17.196;2022-08-11T12:54:10;101618.13;;;31.03;28.82
61568;BME280;47462;59.172;17.196;2022-08-11T12:56:47;101639.03;;;31.27;27.63
61568;BME280;47462;59.172;17.196;2022-08-11T12:59:34;101628.44;;;31.08;27.54
61568;BME280;47462;59.172;17.196;2022-08-11T13:02:21;101629.50;;;30.97;27.49
61568;BME280;47462;59.172;17.196;2022-08-11T13:05:11;101629.41;;;31.25;28.12
61568;BME280;47462;59.172;17.196;2022-08-11T13:07:37;101609.91;;;31.57;27.96
61568;BME280;47462;59.172;17.196;2022-08-11T13:10:07;101628.72;;;31.75;26.71
61568;BME280;47462;59.172;17.196;2022-08-11T13:12:34;101624.66;;;31.71;26.59
61568;BME280;47462;59.172;17.196;2022-08-11T13:15:18;101624.75;;;31.96;25.87
61568;BME280;47462;59.172;17.196;2022-08-11T13:17:45;101608.19;;;31.82;26.30
61568;BME280;47462;59.172;17.196;2022-08-11T13:20:16;101621.28;;;31.69;25.99
61568;BME280;47462;59.172;17.196;2022-08-11T13:22:42;101598.16;;;31.40;27.17
61568;BME280;47462;59.172;17.196;2022-08-11T13:25:11;101619.16;;;31.81;27.08
61568;BME280;47462;59.172;17.196;2022-08-11T13:27:38;101618.44;;;31.79;26.80
61568;BME280;47462;59.172;17.196;2022-08-11T13:30:05;101615.66;;;31.97;26.38
61568;BME280;47462;59.172;17.196;2022-08-11T13:32:50;101614.91;;;31.78;25.74
61568;BME280;47462;59.172;17.196;2022-08-11T13:35:16;101595.22;;;31.94;26.68
61568;BME280;47462;59.172;17.196;2022-08-11T13:37:44;101607.53;;;32.48;25.80
61568;BME280;47462;59.172;17.196;2022-08-11T13:40:12;101610.63;;;32.53;24.89
61568;BME280;47462;59.172;17.196;2022-08-11T13:42:39;101612.16;;;32.64;24.87
61568;BME280;47462;59.172;17.196;2022-08-11T13:45:06;101615.38;;;32.67;24.45
61568;BME280;47462;59.172;17.196;2022-08-11T13:47:32;101612.28;;;32.54;24.06
61568;BME280;47462;59.172;17.196;2022-08-11T13:49:58;101612.06;;;32.23;24.87
61568;BME280;47462;59.172;17.196;2022-08-11T13:52:25;101616.78;;;32.21;25.45
61568;BME280;47462;59.172;17.196;2022-08-11T13:54:52;101621.72;;;31.91;25.17
61568;BME280;47462;59.172;17.196;2022-08-11T13:57:19;101616.91;;;31.50;25.37
61568;BME280;47462;59.172;17.196;2022-08-11T13:59:46;101605.69;;;31.55;26.06
61568;BME280;47462;59.172;17.196;2022-08-11T14:02:16;101606.03;;;31.94;25.41
61568;BME280;47462;59.172;17.196;2022-08-11T14:04:47;101608.34;;;31.81;24.31
61568;BME280;47462;59.172;17.196;2022-08-11T14:07:19;101604.41;;;31.67;24.95
61568;BME280;47462;59.172;17.196;2022-08-11T14:09:47;101609.09;;;31.65;24.25
61568;BME280;47462;59.172;17.196;2022-08-11T14:12:33;101544.53;;;31.03;23.45
61568;BME280;47462;59.172;17.196;2022-08-11T14:15:23;101594.78;;;31.38;24.24
61568;BME280;47462;59.172;17.196;2022-08-11T14:18:19;101598.81;;;32.03;23.33
61568;BME280;47462;59.172;17.196;2022-08-11T14:20:49;101594.91;;;32.57;23.07
61568;BME280;47462;59.172;17.196;2022-08-11T14:23:38;101607.19;;;34.37;21.17
61568;BME280;47462;59.172;17.196;2022-08-11T14:26:05;101603.47;;;35.67;18.29
61568;BME280;47462;59.172;17.196;2022-08-11T14:29:11;101610.06;;;36.10;17.49
61568;BME280;47462;59.172;17.196;2022-08-11T14:31:42;101606.19;;;34.85;19.36
61568;BME280;47462;59.172;17.196;2022-08-11T14:34:10;101603.00;;;35.79;18.01
61568;BME280;47462;59.172;17.196;2022-08-11T14:36:42;101600.88;;;36.11;17.30
61568;BME280;47462;59.172;17.196;2022-08-11T14:39:10;101590.56;;;38.93;15.13
61568;BME280;47462;59.172;17.196;2022-08-11T14:41:37;101610.28;;;39.93;13.92
61568;BME280;47462;59.172;17.196;2022-08-11T14:44:22;101579.47;;;38.74;15.71
61568;BME280;47462;59.172;17.196;2022-08-11T14:47:07;101597.91;;;39.12;15.69
61568;BME280;47462;59.172;17.196;2022-08-11T14:49:36;101610.00;;;42.27;12.68
61568;BME280;47462;59.172;17.196;2022-08-11T14:52:06;101618.22;;;45.73;10.18
61568;BME280;47462;59.172;17.196;2022-08-11T14:54:32;101614.25;;;46.78;10.10
61568;BME280;47462;59.172;17.196;2022-08-11T14:57:36;101617.59;;;45.21;11.59
61568;BME280;47462;59.172;17.196;2022-08-11T15:00:04;101608.53;;;42.79;11.94
61568;BME280;47462;59.172;17.196;2022-08-11T15:02:32;101624.78;;;39.15;14.33
61568;BME280;47462;59.172;17.196;2022-08-11T15:05:18;101610.59;;;37.28;15.51
61568;BME280;47462;59.172;17.196;2022-08-11T15:07:44;101619.84;;;36.62;16.99
61568;BME280;47462;59.172;17.196;2022-08-11T15:10:10;101614.22;;;36.05;16.81
61568;BME280;47462;59.172;17.196;2022-08-11T15:12:38;101608.06;;;35.67;17.10
61568;BME280;47462;59.172;17.196;2022-08-11T15:15:06;101610.78;;;35.37;17.92
61568;BME280;47462;59.172;17.196;2022-08-11T15:17:53;101609.16;;;35.72;17.98
61568;BME280;47462;59.172;17.196;2022-08-11T15:20:19;101606.78;;;36.14;17.55
61568;BME280;47462;59.172;17.196;2022-08-11T15:23:04;101614.16;;;37.28;16.76
61568;BME280;47462;59.172;17.196;2022-08-11T15:26:09;101604.38;;;38.31;15.67
61568;BME280;47462;59.172;17.196;2022-08-11T15:28:45;101567.69;;;38.94;15.17
61568;BME280;47462;59.172;17.196;2022-08-11T15:31:30;101606.53;;;41.34;12.50
61568;BME280;47462;59.172;17.196;2022-08-11T15:34:11;101597.66;;;39.99;13.95
61568;BME280;47462;59.172;17.196;2022-08-11T15:37:02;101609.59;;;42.77;12.83
61568;BME280;47462;59.172;17.196;2022-08-11T15:40:02;101614.78;;;48.01;9.28
61568;BME280;47462;59.172;17.196;2022-08-11T15:42:57;101614.59;;;49.51;8.50
61568;BME280;47462;59.172;17.196;2022-08-11T15:45:45;101605.75;;;44.87;11.26
61568;BME280;47462;59.172;17.196;2022-08-11T15:48:17;101612.50;;;40.48;14.54
61568;BME280;47462;59.172;17.196;2022-08-11T15:50:49;101609.25;;;38.96;16.17
61568;BME280;47462;59.172;17.196;2022-08-11T15:53:27;101609.63;;;45.03;11.07
61568;BME280;47462;59.172;17.196;2022-08-11T15:55:57;101608.78;;;48.51;8.49
61568;BME280;47462;59.172;17.196;2022-08-11T15:58:25;101610.88;;;50.45;8.10
61568;BME280;47462;59.172;17.196;2022-08-11T16:01:12;101623.16;;;51.84;6.84
61568;BME280;47462;59.172;17.196;2022-08-11T16:04:00;101594.50;;;51.45;7.29
61568;BME280;47462;59.172;17.196;2022-08-11T16:07:04;101612.66;;;52.47;7.07
61568;BME280;47462;59.172;17.196;2022-08-11T16:09:41;101618.91;;;53.41;6.22
61568;BME280;47462;59.172;17.196;2022-08-11T16:12:14;101599.00;;;53.06;6.22
61568;BME280;47462;59.172;17.196;2022-08-11T16:14:46;101601.69;;;52.69;6.55
61568;BME280;47462;59.172;17.196;2022-08-11T16:17:43;101604.19;;;52.38;7.01
61568;BME280;47462;59.172;17.196;2022-08-11T16:20:11;101605.75;;;51.35;7.85
61568;BME280;47462;59.172;17.196;2022-08-11T16:22:39;101608.47;;;47.27;10.35
61568;BME280;47462;59.172;17.196;2022-08-11T16:25:10;101605.28;;;46.98;10.67
61568;BME280;47462;59.172;17.196;2022-08-11T16:27:51;101600.22;;;46.85;10.29
61568;BME280;47462;59.172;17.196;2022-08-11T16:30:18;101605.72;;;44.65;11.44